sensor_id;sensor_type;location;lat;lon;timestamp;P1;durP1;ratioP1;P2;durP2;ratioP2
9940;SDS011;5009;50.656;7.188;2023-09-08T03:13:03;11.88;;;8.82;;
9940;SDS011;5009;50.656;7.188;2023-09-08T03:15:31;10.82;;;8.02;;
9940;SDS011;5009;50.656;7.188;2023-09-08T03:17:57;9.35;;;8.55;;
9940;SDS011;5009;50.656;7.188;2023-09-08T03:20:23;10.27;;;9.27;;
9940;SDS011;5009;50.656;7.188;2023-09-08T03:22:53;10.18;;;9.23;;
9940;SDS011;5009;50.656;7.188;2023-09-08T03:25:19;8.50;;;7.88;;
9940;SDS011;5009;50.656;7.188;2023-09-08T03:27:45;10.13;;;9.13;;
9940;SDS011;5009;50.656;7.188;2023-09-08T03:30:11;9.82;;;8.90;;
9940;SDS011;5009;50.656;7.188;2023-09-08T03:32:37;9.82;;;9.02;;
9940;SDS011;5009;50.656;7.188;2023-09-08T03:35:03;10.32;;;9.25;;
9940;SDS011;5009;50.656;7.188;2023-09-08T03:37:32;9.25;;;8.35;;
9940;SDS011;5009;50.656;7.188;2023-09-08T03:39:59;10.60;;;9.70;;
9940;SDS011;5009;50.656;7.188;2023-09-08T03:42:24;10.57;;;9.55;;
9940;SDS011;5009;50.656;7.188;2023-09-08T03:44:50;10.17;;;9.17;;
9940;SDS011;5009;50.656;7.188;2023-09-08T03:47:16;12.15;;;8.48;;
9940;SDS011;5009;50.656;7.188;2023-09-08T03:49:41;11.98;;;9.35;;
9940;SDS011;5009;50.656;7.188;2023-09-08T03:52:07;11.90;;;9.98;;
9940;SDS011;5009;50.656;7.188;2023-09-08T03:54:32;10.65;;;9.57;;
9940;SDS011;5009;50.656;7.188;2023-09-08T03:56:58;11.13;;;9.98;;
9940;SDS011;5009;50.656;7.188;2023-09-08T03:59:23;11.07;;;10.07;;
9940;SDS011;5009;50.656;7.188;2023-09-08T04:01:49;12.17;;;10.80;;
9940;SDS011;5009;50.656;7.188;2023-09-08T04:04:14;11.03;;;10.00;;
9940;SDS011;5009;50.656;7.188;2023-09-08T04:06:41;11.93;;;10.70;;
9940;SDS011;5009;50.656;7.188;2023-09-08T04:09:06;12.20;;;11.00;;
9940;SDS011;5009;50.656;7.188;2023-09-08T04:11:32;11.17;;;10.07;;
9940;SDS011;5009;50.656;7.188;2023-09-08T04:13:58;10.50;;;9.57;;
9940;SDS011;5009;50.656;7.188;2023-09-08T04:16:23;10.27;;;9.37;;
9940;SDS011;5009;50.656;7.188;2023-09-08T04:18:51;11.60;;;10.40;;
9940;SDS011;5009;50.656;7.188;2023-09-08T04:21:16;11.60;;;10.40;;
9940;SDS011;5009;50.656;7.188;2023-09-08T04:23:42;10.77;;;9.87;;
9940;SDS011;5009;50.656;7.188;2023-09-08T04:26:07;10.70;;;9.57;;
9940;SDS011;5009;50.656;7.188;2023-09-08T04:28:33;11.70;;;10.60;;
9940;SDS011;5009;50.656;7.188;2023-09-08T04:30:58;10.97;;;9.87;;
9940;SDS011;5009;50.656;7.188;2023-09-08T04:33:24;11.07;;;9.97;;
9940;SDS011;5009;50.656;7.188;2023-09-08T04:35:49;11.50;;;10.47;;
9940;SDS011;5009;50.656;7.188;2023-09-08T04:38:15;12.20;;;10.90;;
9940;SDS011;5009;50.656;7.188;2023-09-08T04:40:40;11.17;;;9.70;;
9940;SDS011;5009;50.656;7.188;2023-09-08T04:43:07;11.83;;;10.80;;
9940;SDS011;5009;50.656;7.188;2023-09-08T04:45:32;11.50;;;10.40;;
9940;SDS011;5009;50.656;7.188;2023-09-08T04:47:58;11.77;;;10.53;;
9940;SDS011;5009;50.656;7.188;2023-09-08T04:50:23;11.20;;;10.15;;
9940;SDS011;5009;50.656;7.188;2023-09-08T04:52:49;13.30;;;10.05;;
9940;SDS011;5009;50.656;7.188;2023-09-08T04:55:15;11.60;;;10.43;;
9940;SDS011;5009;50.656;7.188;2023-09-08T04:57:40;12.17;;;9.90;;
9940;SDS011;5009;50.656;7.188;2023-09-08T05:00:06;11.70;;;10.50;;
9940;SDS011;5009;50.656;7.188;2023-09-08T05:02:32;11.47;;;10.37;;
9940;SDS011;5009;50.656;7.188;2023-09-08T05:04:57;12.57;;;10.80;;
9940;SDS011;5009;50.656;7.188;2023-09-08T05:07:25;12.07;;;10.43;;
9940;SDS011;5009;50.656;7.188;2023-09-08T05:09:50;11.73;;;10.63;;
9940;SDS011;5009;50.656;7.188;2023-09-08T05:12:16;11.47;;;10.30;;
9940;SDS011;5009;50.656;7.188;2023-09-08T05:14:41;11.30;;;9.93;;
9940;SDS011;5009;50.656;7.188;2023-09-08T05:17:07;11.55;;;10.45;;
9940;SDS011;5009;50.656;7.188;2023-09-08T05:19:32;11.77;;;10.43;;
9940;SDS011;5009;50.656;7.188;2023-09-08T05:21:58;11.43;;;10.17;;
9940;SDS011;5009;50.656;7.188;2023-09-08T05:24:24;10.95;;;9.90;;
9940;SDS011;5009;50.656;7.188;2023-09-08T05:26:51;11.95;;;10.88;;
9940;SDS011;5009;50.656;7.188;2023-09-08T05:29:17;11.18;;;10.15;;
9940;SDS011;5009;50.656;7.188;2023-09-08T05:31:42;11.80;;;10.30;;
9940;SDS011;5009;50.656;7.188;2023-09-08T05:34:08;12.07;;;10.73;;
9940;SDS011;5009;50.656;7.188;2023-09-08T05:36:34;12.40;;;10.23;;
9940;SDS011;5009;50.656;7.188;2023-09-08T05:39:03;11.85;;;10.85;;
9940;SDS011;5009;50.656;7.188;2023-09-08T05:41:28;10.93;;;9.63;;
9940;SDS011;5009;50.656;7.188;2023-09-08T05:43:54;9.98;;;8.93;;
9940;SDS011;5009;50.656;7.188;2023-09-08T05:46:19;10.48;;;9.48;;
9940;SDS011;5009;50.656;7.188;2023-09-08T05:48:45;10.45;;;9.30;;
9940;SDS011;5009;50.656;7.188;2023-09-08T05:51:12;11.02;;;9.98;;
9940;SDS011;5009;50.656;7.188;2023-09-08T05:53:39;10.55;;;9.55;;
9940;SDS011;5009;50.656;7.188;2023-09-08T05:56:05;9.68;;;8.77;;
9940;SDS011;5009;50.656;7.188;2023-09-08T05:58:31;10.05;;;9.02;;
9940;SDS011;5009;50.656;7.188;2023-09-08T06:00:57;10.13;;;8.88;;
9940;SDS011;5009;50.656;7.188;2023-09-08T06:03:22;9.50;;;8.63;;
9940;SDS011;5009;50.656;7.188;2023-09-08T06:05:48;8.95;;;8.13;;
9940;SDS011;5009;50.656;7.188;2023-09-08T06:08:13;9.27;;;8.38;;
9940;SDS011;5009;50.656;7.188;2023-09-08T06:10:39;8.82;;;7.80;;
9940;SDS011;5009;50.656;7.188;2023-09-08T06:13:05;9.43;;;8.07;;
9940;SDS011;5009;50.656;7.188;2023-09-08T06:15:30;10.93;;;8.00;;
9940;SDS011;5009;50.656;7.188;2023-09-08T06:17:56;9.40;;;8.27;;
9940;SDS011;5009;50.656;7.188;2023-09-08T06:20:21;10.35;;;7.68;;
9940;SDS011;5009;50.656;7.188;2023-09-08T06:22:47;9.73;;;7.70;;
9940;SDS011;5009;50.656;7.188;2023-09-08T06:25:13;8.80;;;8.00;;
9940;SDS011;5009;50.656;7.188;2023-09-08T06:27:39;8.80;;;7.88;;
9940;SDS011;5009;50.656;7.188;2023-09-08T06:30:05;8.23;;;7.53;;
9940;SDS011;5009;50.656;7.188;2023-09-08T06:32:31;8.30;;;7.50;;
9940;SDS011;5009;50.656;7.188;2023-09-08T06:34:56;9.50;;;7.20;;
9940;SDS011;5009;50.656;7.188;2023-09-08T06:37:22;8.07;;;7.28;;
9940;SDS011;5009;50.656;7.188;2023-09-08T06:39:47;8.52;;;7.78;;
9940;SDS011;5009;50.656;7.188;2023-09-08T06:42:13;8.27;;;7.38;;
9940;SDS011;5009;50.656;7.188;2023-09-08T06:44:39;7.93;;;7.13;;
9940;SDS011;5009;50.656;7.188;2023-09-08T06:47:04;7.72;;;6.93;;
9940;SDS011;5009;50.656;7.188;2023-09-08T06:49:32;7.63;;;6.50;;
9940;SDS011;5009;50.656;7.188;2023-09-08T06:51:57;8.80;;;6.85;;
9940;SDS011;5009;50.656;7.188;2023-09-08T06:54:23;9.57;;;6.47;;
9940;SDS011;5009;50.656;7.188;2023-09-08T06:56:49;6.55;;;5.95;;
9940;SDS011;5009;50.656;7.188;2023-09-08T06:59:14;9.93;;;6.15;;
9940;SDS011;5009;50.656;7.188;2023-09-08T07:01:40;6.90;;;6.20;;
9940;SDS011;5009;50.656;7.188;2023-09-08T07:04:05;6.90;;;6.20;;
9940;SDS011;5009;50.656;7.188;2023-09-08T07:06:31;8.45;;;6.07;;
9940;SDS011;5009;50.656;7.188;2023-09-08T07:08:57;6.22;;;5.63;;
9940;SDS011;5009;50.656;7.188;2023-09-08T07:11:22;6.90;;;6.10;;
9940;SDS011;5009;50.656;7.188;2023-09-08T07:13:48;6.53;;;5.93;;
9940;SDS011;5009;50.656;7.188;2023-09-08T07:16:13;6.80;;;6.20;;
9940;SDS011;5009;50.656;7.188;2023-09-08T07:18:39;6.50;;;5.93;;
9940;SDS011;5009;50.656;7.188;2023-09-08T07:21:04;10.00;;;5.90;;
9940;SDS011;5009;50.656;7.188;2023-09-08T07:23:31;6.28;;;5.68;;
9940;SDS011;5009;50.656;7.188;2023-09-08T07:25:56;6.45;;;5.93;;
9940;SDS011;5009;50.656;7.188;2023-09-08T07:28:22;6.18;;;5.57;;
9940;SDS011;5009;50.656;7.188;2023-09-08T07:30:48;9.02;;;6.00;;
9940;SDS011;5009;50.656;7.188;2023-09-08T07:33:13;6.70;;;5.40;;
9940;SDS011;5009;50.656;7.188;2023-09-08T07:35:39;5.53;;;5.13;;
9940;SDS011;5009;50.656;7.188;2023-09-08T07:38:05;6.20;;;5.60;;
9940;SDS011;5009;50.656;7.188;2023-09-08T07:40:32;6.25;;;5.70;;
9940;SDS011;5009;50.656;7.188;2023-09-08T07:42:59;6.05;;;5.43;;
9940;SDS011;5009;50.656;7.188;2023-09-08T07:45:24;6.43;;;5.85;;
9940;SDS011;5009;50.656;7.188;2023-09-08T07:47:50;6.28;;;5.70;;
9940;SDS011;5009;50.656;7.188;2023-09-08T07:50:26;6.28;;;5.68;;
9940;SDS011;5009;50.656;7.188;2023-09-08T07:52:53;6.13;;;5.63;;
9940;SDS011;5009;50.656;7.188;2023-09-08T07:55:21;6.18;;;5.60;;
9940;SDS011;5009;50.656;7.188;2023-09-08T07:57:48;9.23;;;5.40;;
9940;SDS011;5009;50.656;7.188;2023-09-08T08:00:15;6.13;;;5.50;;
9940;SDS011;5009;50.656;7.188;2023-09-08T08:02:48;6.25;;;5.75;;
9940;SDS011;5009;50.656;7.188;2023-09-08T08:05:15;6.13;;;5.50;;
9940;SDS011;5009;50.656;7.188;2023-09-08T08:07:41;6.65;;;5.65;;
9940;SDS011;5009;50.656;7.188;2023-09-08T08:10:08;6.50;;;5.70;;
9940;SDS011;5009;50.656;7.188;2023-09-08T08:12:34;6.38;;;5.30;;
9940;SDS011;5009;50.656;7.188;2023-09-08T08:15:04;5.85;;;5.30;;
9940;SDS011;5009;50.656;7.188;2023-09-08T08:17:30;5.60;;;5.10;;
9940;SDS011;5009;50.656;7.188;2023-09-08T08:19:56;5.80;;;5.15;;
9940;SDS011;5009;50.656;7.188;2023-09-08T08:22:31;5.97;;;5.40;;
9940;SDS011;5009;50.656;7.188;2023-09-08T08:24:57;5.85;;;5.32;;
9940;SDS011;5009;50.656;7.188;2023-09-08T08:27:22;5.97;;;5.45;;
9940;SDS011;5009;50.656;7.188;2023-09-08T08:29:48;5.72;;;5.22;;
9940;SDS011;5009;50.656;7.188;2023-09-08T08:32:13;7.50;;;5.55;;
9940;SDS011;5009;50.656;7.188;2023-09-08T08:34:39;6.53;;;5.93;;
9940;SDS011;5009;50.656;7.188;2023-09-08T08:37:05;6.15;;;5.75;;
9940;SDS011;5009;50.656;7.188;2023-09-08T08:39:30;8.02;;;5.75;;
9940;SDS011;5009;50.656;7.188;2023-09-08T08:41:56;7.47;;;5.90;;
9940;SDS011;5009;50.656;7.188;2023-09-08T08:44:21;5.53;;;5.13;;
9940;SDS011;5009;50.656;7.188;2023-09-08T08:46:48;6.10;;;5.50;;
9940;SDS011;5009;50.656;7.188;2023-09-08T08:49:15;8.82;;;5.20;;
9940;SDS011;5009;50.656;7.188;2023-09-08T08:51:42;8.75;;;5.50;;
9940;SDS011;5009;50.656;7.188;2023-09-08T08:54:12;6.28;;;5.53;;
9940;SDS011;5009;50.656;7.188;2023-09-08T08:56:38;5.88;;;5.38;;
9940;SDS011;5009;50.656;7.188;2023-09-08T08:59:04;5.68;;;5.15;;
9940;SDS011;5009;50.656;7.188;2023-09-08T09:01:31;9.20;;;6.38;;
9940;SDS011;5009;50.656;7.188;2023-09-08T09:03:57;6.20;;;5.70;;
9940;SDS011;5009;50.656;7.188;2023-09-08T09:06:23;6.43;;;5.88;;
9940;SDS011;5009;50.656;7.188;2023-09-08T09:08:49;6.85;;;5.47;;
9940;SDS011;5009;50.656;7.188;2023-09-08T09:11:14;5.88;;;5.38;;
9940;SDS011;5009;50.656;7.188;2023-09-08T09:13:40;5.57;;;5.07;;
9940;SDS011;5009;50.656;7.188;2023-09-08T09:16:06;5.88;;;5.28;;
9940;SDS011;5009;50.656;7.188;2023-09-08T09:18:47;9.15;;;5.82;;
9940;SDS011;5009;50.656;7.188;2023-09-08T09:21:41;5.72;;;5.20;;
9940;SDS011;5009;50.656;7.188;2023-09-08T09:24:13;6.30;;;5.20;;
9940;SDS011;5009;50.656;7.188;2023-09-08T09:26:39;6.40;;;5.78;;
9940;SDS011;5009;50.656;7.188;2023-09-08T09:29:11;8.80;;;5.50;;
9940;SDS011;5009;50.656;7.188;2023-09-08T09:31:46;6.30;;;5.80;;
9940;SDS011;5009;50.656;7.188;2023-09-08T09:34:16;6.00;;;5.40;;
9940;SDS011;5009;50.656;7.188;2023-09-08T09:36:42;6.07;;;5.47;;
9940;SDS011;5009;50.656;7.188;2023-09-08T09:39:10;6.22;;;5.28;;
9940;SDS011;5009;50.656;7.188;2023-09-08T09:41:37;5.93;;;5.32;;
9940;SDS011;5009;50.656;7.188;2023-09-08T09:44:02;5.55;;;5.15;;
9940;SDS011;5009;50.656;7.188;2023-09-08T09:46:28;6.32;;;5.55;;
9940;SDS011;5009;50.656;7.188;2023-09-08T09:48:54;8.20;;;5.32;;
9940;SDS011;5009;50.656;7.188;2023-09-08T09:51:22;9.20;;;5.70;;
9940;SDS011;5009;50.656;7.188;2023-09-08T09:53:51;6.85;;;5.80;;
9940;SDS011;5009;50.656;7.188;2023-09-08T09:56:17;9.55;;;5.88;;
9940;SDS011;5009;50.656;7.188;2023-09-08T09:58:43;5.72;;;5.22;;
9940;SDS011;5009;50.656;7.188;2023-09-08T10:01:10;6.28;;;5.68;;
9940;SDS011;5009;50.656;7.188;2023-09-08T10:03:37;6.75;;;5.47;;
9940;SDS011;5009;50.656;7.188;2023-09-08T10:06:06;6.25;;;5.60;;
9940;SDS011;5009;50.656;7.188;2023-09-08T10:08:33;6.13;;;5.63;;
9940;SDS011;5009;50.656;7.188;2023-09-08T10:11:06;6.20;;;5.70;;
9940;SDS011;5009;50.656;7.188;2023-09-08T10:13:37;7.32;;;6.57;;
9940;SDS011;5009;50.656;7.188;2023-09-08T10:16:08;5.53;;;5.00;;
9940;SDS011;5009;50.656;7.188;2023-09-08T10:18:38;6.50;;;5.63;;
9940;SDS011;5009;50.656;7.188;2023-09-08T10:21:07;6.03;;;5.45;;
9940;SDS011;5009;50.656;7.188;2023-09-08T10:23:41;7.55;;;5.60;;
9940;SDS011;5009;50.656;7.188;2023-09-08T10:26:12;8.02;;;5.93;;
9940;SDS011;5009;50.656;7.188;2023-09-08T10:28:41;7.18;;;5.80;;
9940;SDS011;5009;50.656;7.188;2023-09-08T10:31:07;10.18;;;5.85;;
9940;SDS011;5009;50.656;7.188;2023-09-08T10:33:34;6.93;;;6.28;;
9940;SDS011;5009;50.656;7.188;2023-09-08T10:36:00;6.45;;;5.82;;
9940;SDS011;5009;50.656;7.188;2023-09-08T10:38:33;6.63;;;5.82;;
9940;SDS011;5009;50.656;7.188;2023-09-08T10:43:42;6.45;;;5.65;;
9940;SDS011;5009;50.656;7.188;2023-09-08T10:46:08;8.07;;;5.63;;
9940;SDS011;5009;50.656;7.188;2023-09-08T10:48:44;7.50;;;5.90;;
9940;SDS011;5009;50.656;7.188;2023-09-08T10:51:27;5.90;;;5.43;;
9940;SDS011;5009;50.656;7.188;2023-09-08T10:53:53;6.22;;;5.78;;
9940;SDS011;5009;50.656;7.188;2023-09-08T10:56:18;7.28;;;5.72;;
9940;SDS011;5009;50.656;7.188;2023-09-08T10:58:48;8.15;;;5.93;;
9940;SDS011;5009;50.656;7.188;2023-09-08T11:01:16;6.45;;;5.70;;
9940;SDS011;5009;50.656;7.188;2023-09-08T11:03:43;8.05;;;5.38;;
9940;SDS011;5009;50.656;7.188;2023-09-08T11:06:10;12.43;;;5.82;;
9940;SDS011;5009;50.656;7.188;2023-09-08T11:08:38;6.18;;;5.63;;
9940;SDS011;5009;50.656;7.188;2023-09-08T11:11:10;8.15;;;5.88;;
9940;SDS011;5009;50.656;7.188;2023-09-08T11:13:37;6.32;;;5.68;;
9940;SDS011;5009;50.656;7.188;2023-09-08T11:16:02;14.85;;;6.13;;
9940;SDS011;5009;50.656;7.188;2023-09-08T11:18:28;6.15;;;5.35;;
9940;SDS011;5009;50.656;7.188;2023-09-08T11:21:01;6.03;;;5.53;;
9940;SDS011;5009;50.656;7.188;2023-09-08T11:23:32;10.35;;;5.50;;
9940;SDS011;5009;50.656;7.188;2023-09-08T11:25:58;6.45;;;5.78;;
9940;SDS011;5009;50.656;7.188;2023-09-08T11:28:25;6.28;;;5.25;;
9940;SDS011;5009;50.656;7.188;2023-09-08T11:30:52;5.97;;;5.28;;
9940;SDS011;5009;50.656;7.188;2023-09-08T11:33:19;5.47;;;5.07;;
9940;SDS011;5009;50.656;7.188;2023-09-08T11:35:54;6.40;;;5.28;;
9940;SDS011;5009;50.656;7.188;2023-09-08T11:38:29;7.80;;;5.75;;
9940;SDS011;5009;50.656;7.188;2023-09-08T11:40:56;6.80;;;6.10;;
9940;SDS011;5009;50.656;7.188;2023-09-08T11:43:23;6.75;;;6.15;;
9940;SDS011;5009;50.656;7.188;2023-09-08T11:45:50;6.15;;;5.38;;
9940;SDS011;5009;50.656;7.188;2023-09-08T11:48:18;8.02;;;5.85;;
9940;SDS011;5009;50.656;7.188;2023-09-08T11:50:44;5.72;;;5.20;;
9940;SDS011;5009;50.656;7.188;2023-09-08T11:53:10;7.10;;;5.55;;
9940;SDS011;5009;50.656;7.188;2023-09-08T11:55:35;7.53;;;5.65;;
9940;SDS011;5009;50.656;7.188;2023-09-08T11:58:04;5.80;;;5.30;;
9940;SDS011;5009;50.656;7.188;2023-09-08T12:00:30;8.10;;;5.65;;
9940;SDS011;5009;50.656;7.188;2023-09-08T12:03:08;7.38;;;5.88;;
9940;SDS011;5009;50.656;7.188;2023-09-08T12:05:40;6.47;;;5.72;;
9940;SDS011;5009;50.656;7.188;2023-09-08T12:08:07;6.32;;;5.68;;
9940;SDS011;5009;50.656;7.188;2023-09-08T12:10:39;8.68;;;5.65;;
9940;SDS011;5009;50.656;7.188;2023-09-08T12:13:06;6.97;;;5.43;;
9940;SDS011;5009;50.656;7.188;2023-09-08T12:15:39;6.75;;;5.97;;
9940;SDS011;5009;50.656;7.188;2023-09-08T12:18:07;5.75;;;5.22;;
9940;SDS011;5009;50.656;7.188;2023-09-08T12:20:34;5.47;;;4.97;;
9940;SDS011;5009;50.656;7.188;2023-09-08T12:23:02;6.85;;;5.65;;
9940;SDS011;5009;50.656;7.188;2023-09-08T12:25:29;6.50;;;5.65;;
9940;SDS011;5009;50.656;7.188;2023-09-08T12:27:58;6.15;;;5.55;;
9940;SDS011;5009;50.656;7.188;2023-09-08T12:30:24;6.78;;;5.50;;
9940;SDS011;5009;50.656;7.188;2023-09-08T12:32:55;10.07;;;5.55;;
9940;SDS011;5009;50.656;7.188;2023-09-08T12:35:23;7.40;;;5.40;;
9940;SDS011;5009;50.656;7.188;2023-09-08T12:37:59;6.35;;;5.75;;
9940;SDS011;5009;50.656;7.188;2023-09-08T12:40:28;6.30;;;5.70;;
9940;SDS011;5009;50.656;7.188;2023-09-08T12:42:55;7.47;;;5.63;;
9940;SDS011;5009;50.656;7.188;2023-09-08T12:45:23;6.90;;;5.47;;
9940;SDS011;5009;50.656;7.188;2023-09-08T12:47:50;7.38;;;6.00;;
9940;SDS011;5009;50.656;7.188;2023-09-08T12:50:16;6.38;;;5.78;;
9940;SDS011;5009;50.656;7.188;2023-09-08T12:52:42;6.78;;;6.25;;
9940;SDS011;5009;50.656;7.188;2023-09-08T12:55:08;5.85;;;5.35;;
9940;SDS011;5009;50.656;7.188;2023-09-08T12:57:35;7.85;;;5.63;;
9940;SDS011;5009;50.656;7.188;2023-09-08T13:00:01;6.75;;;5.57;;
9940;SDS011;5009;50.656;7.188;2023-09-08T13:02:30;9.30;;;5.80;;
9940;SDS011;5009;50.656;7.188;2023-09-08T13:04:56;6.95;;;5.90;;
9940;SDS011;5009;50.656;7.188;2023-09-08T13:07:22;6.57;;;5.97;;
9940;SDS011;5009;50.656;7.188;2023-09-08T13:09:48;6.70;;;6.15;;
9940;SDS011;5009;50.656;7.188;2023-09-08T13:12:14;6.20;;;5.70;;
9940;SDS011;5009;50.656;7.188;2023-09-08T13:14:39;6.85;;;6.00;;
9940;SDS011;5009;50.656;7.188;2023-09-08T13:17:05;8.13;;;6.10;;
9940;SDS011;5009;50.656;7.188;2023-09-08T13:19:31;6.45;;;5.82;;
9940;SDS011;5009;50.656;7.188;2023-09-08T13:21:57;9.32;;;6.03;;
9940;SDS011;5009;50.656;7.188;2023-09-08T13:24:23;6.10;;;5.50;;
9940;SDS011;5009;50.656;7.188;2023-09-08T13:26:48;6.82;;;6.22;;
9940;SDS011;5009;50.656;7.188;2023-09-08T13:29:15;7.13;;;6.43;;
9940;SDS011;5009;50.656;7.188;2023-09-08T13:31:41;6.57;;;6.00;;
9940;SDS011;5009;50.656;7.188;2023-09-08T13:34:06;6.53;;;5.80;;
9940;SDS011;5009;50.656;7.188;2023-09-08T13:36:32;6.28;;;5.72;;
9940;SDS011;5009;50.656;7.188;2023-09-08T13:38:57;6.57;;;6.07;;
9940;SDS011;5009;50.656;7.188;2023-09-08T13:41:23;8.38;;;6.30;;
9940;SDS011;5009;50.656;7.188;2023-09-08T13:43:49;6.70;;;6.18;;
9940;SDS011;5009;50.656;7.188;2023-09-08T13:46:14;6.57;;;5.45;;
9940;SDS011;5009;50.656;7.188;2023-09-08T13:48:40;6.13;;;5.60;;
9940;SDS011;5009;50.656;7.188;2023-09-08T13:51:06;6.00;;;5.40;;
9940;SDS011;5009;50.656;7.188;2023-09-08T13:53:31;6.82;;;6.28;;
9940;SDS011;5009;50.656;7.188;2023-09-08T13:55:58;8.98;;;6.55;;
9940;SDS011;5009;50.656;7.188;2023-09-08T13:58:23;6.70;;;6.07;;
9940;SDS011;5009;50.656;7.188;2023-09-08T14:00:49;6.50;;;6.00;;
9940;SDS011;5009;50.656;7.188;2023-09-08T14:03:16;7.30;;;5.85;;
9940;SDS011;5009;50.656;7.188;2023-09-08T14:05:42;7.50;;;5.78;;
9940;SDS011;5009;50.656;7.188;2023-09-08T14:08:08;8.43;;;5.88;;
9940;SDS011;5009;50.656;7.188;2023-09-08T14:10:33;10.25;;;6.10;;
9940;SDS011;5009;50.656;7.188;2023-09-08T14:12:59;8.75;;;6.25;;
9940;SDS011;5009;50.656;7.188;2023-09-08T14:15:24;6.38;;;5.78;;
9940;SDS011;5009;50.656;7.188;2023-09-08T14:17:50;6.97;;;6.07;;
9940;SDS011;5009;50.656;7.188;2023-09-08T14:20:15;6.43;;;5.82;;
9940;SDS011;5009;50.656;7.188;2023-09-08T14:22:41;6.32;;;5.82;;
9940;SDS011;5009;50.656;7.188;2023-09-08T14:25:07;6.60;;;6.03;;
9940;SDS011;5009;50.656;7.188;2023-09-08T14:27:33;6.35;;;5.68;;
9940;SDS011;5009;50.656;7.188;2023-09-08T14:30:00;6.75;;;5.93;;
9940;SDS011;5009;50.656;7.188;2023-09-08T14:32:26;6.35;;;5.43;;
9940;SDS011;5009;50.656;7.188;2023-09-08T14:34:52;6.60;;;5.57;;
9940;SDS011;5009;50.656;7.188;2023-09-08T14:37:21;6.45;;;5.95;;
9940;SDS011;5009;50.656;7.188;2023-09-08T14:39:47;6.18;;;5.68;;
9940;SDS011;5009;50.656;7.188;2023-09-08T14:42:13;8.73;;;6.15;;
9940;SDS011;5009;50.656;7.188;2023-09-08T14:44:40;6.93;;;6.18;;
9940;SDS011;5009;50.656;7.188;2023-09-08T14:47:06;6.80;;;6.20;;
9940;SDS011;5009;50.656;7.188;2023-09-08T14:49:31;6.22;;;5.65;;
9940;SDS011;5009;50.656;7.188;2023-09-08T14:51:57;8.98;;;5.90;;
9940;SDS011;5009;50.656;7.188;2023-09-08T14:54:23;7.07;;;5.75;;
9940;SDS011;5009;50.656;7.188;2023-09-08T14:56:49;6.60;;;6.10;;
9940;SDS011;5009;50.656;7.188;2023-09-08T14:59:15;7.43;;;5.40;;
9940;SDS011;5009;50.656;7.188;2023-09-08T15:01:40;7.65;;;5.80;;
9940;SDS011;5009;50.656;7.188;2023-09-08T15:04:08;6.55;;;5.75;;
9940;SDS011;5009;50.656;7.188;2023-09-08T15:06:33;5.80;;;5.40;;
9940;SDS011;5009;50.656;7.188;2023-09-08T15:08:59;6.53;;;5.35;;
9940;SDS011;5009;50.656;7.188;2023-09-08T15:11:25;6.95;;;5.82;;
9940;SDS011;5009;50.656;7.188;2023-09-08T15:13:51;6.47;;;5.88;;
9940;SDS011;5009;50.656;7.188;2023-09-08T15:16:16;10.63;;;5.82;;
9940;SDS011;5009;50.656;7.188;2023-09-08T15:18:42;6.28;;;5.68;;
9940;SDS011;5009;50.656;7.188;2023-09-08T15:21:08;7.63;;;5.90;;
9940;SDS011;5009;50.656;7.188;2023-09-08T15:23:33;5.97;;;5.35;;
9940;SDS011;5009;50.656;7.188;2023-09-08T15:26:00;6.18;;;5.68;;
9940;SDS011;5009;50.656;7.188;2023-09-08T15:28:25;6.18;;;5.68;;
9940;SDS011;5009;50.656;7.188;2023-09-08T15:30:52;5.75;;;5.35;;
9940;SDS011;5009;50.656;7.188;2023-09-08T15:33:19;6.50;;;5.60;;
9940;SDS011;5009;50.656;7.188;2023-09-08T15:35:45;7.28;;;5.75;;
9940;SDS011;5009;50.656;7.188;2023-09-08T15:38:11;6.53;;;5.70;;
9940;SDS011;5009;50.656;7.188;2023-09-08T15:40:38;6.75;;;5.45;;
9940;SDS011;5009;50.656;7.188;2023-09-08T15:43:03;5.63;;;5.13;;
9940;SDS011;5009;50.656;7.188;2023-09-08T15:45:29;6.38;;;5.78;;
9940;SDS011;5009;50.656;7.188;2023-09-08T15:47:55;6.50;;;5.82;;
9940;SDS011;5009;50.656;7.188;2023-09-08T15:50:20;6.43;;;5.93;;
9940;SDS011;5009;50.656;7.188;2023-09-08T15:52:46;6.97;;;5.35;;
9940;SDS011;5009;50.656;7.188;2023-09-08T15:55:11;7.68;;;5.70;;
9940;SDS011;5009;50.656;7.188;2023-09-08T15:57:37;6.05;;;5.25;;
9940;SDS011;5009;50.656;7.188;2023-09-08T16:00:03;6.60;;;5.55;;
9940;SDS011;5009;50.656;7.188;2023-09-08T16:02:28;5.78;;;5.25;;
9940;SDS011;5009;50.656;7.188;2023-09-08T16:04:54;6.90;;;5.90;;
9940;SDS011;5009;50.656;7.188;2023-09-08T16:07:21;6.75;;;5.72;;
9940;SDS011;5009;50.656;7.188;2023-09-08T16:09:47;5.57;;;5.13;;
9940;SDS011;5009;50.656;7.188;2023-09-08T16:12:13;6.57;;;6.07;;
9940;SDS011;5009;50.656;7.188;2023-09-08T16:14:38;6.53;;;6.00;;
9940;SDS011;5009;50.656;7.188;2023-09-08T16:17:04;6.65;;;6.05;;
9940;SDS011;5009;50.656;7.188;2023-09-08T16:19:29;6.70;;;5.95;;
9940;SDS011;5009;50.656;7.188;2023-09-08T16:21:55;7.20;;;6.53;;
9940;SDS011;5009;50.656;7.188;2023-09-08T16:24:20;8.48;;;6.35;;
9940;SDS011;5009;50.656;7.188;2023-09-08T16:26:46;7.88;;;6.95;;
9940;SDS011;5009;50.656;7.188;2023-09-08T16:29:12;6.18;;;5.63;;
9940;SDS011;5009;50.656;7.188;2023-09-08T16:31:37;6.90;;;6.22;;
9940;SDS011;5009;50.656;7.188;2023-09-08T16:34:03;8.68;;;5.53;;
9940;SDS011;5009;50.656;7.188;2023-09-08T16:36:28;6.47;;;5.47;;
9940;SDS011;5009;50.656;7.188;2023-09-08T16:38:54;6.13;;;5.47;;
9940;SDS011;5009;50.656;7.188;2023-09-08T16:41:19;6.47;;;5.88;;
9940;SDS011;5009;50.656;7.188;2023-09-08T16:43:45;6.18;;;5.60;;
9940;SDS011;5009;50.656;7.188;2023-09-08T16:46:11;5.68;;;5.28;;
9940;SDS011;5009;50.656;7.188;2023-09-08T16:48:39;6.60;;;5.22;;
9940;SDS011;5009;50.656;7.188;2023-09-08T16:51:04;6.05;;;5.18;;
9940;SDS011;5009;50.656;7.188;2023-09-08T16:53:30;5.90;;;5.13;;
9940;SDS011;5009;50.656;7.188;2023-09-08T16:55:55;7.03;;;5.40;;
9940;SDS011;5009;50.656;7.188;2023-09-08T16:58:21;7.15;;;5.55;;
9940;SDS011;5009;50.656;7.188;2023-09-08T17:00:48;6.43;;;5.70;;
9940;SDS011;5009;50.656;7.188;2023-09-08T17:03:13;6.32;;;5.70;;
9940;SDS011;5009;50.656;7.188;2023-09-08T17:05:39;6.20;;;5.70;;
9940;SDS011;5009;50.656;7.188;2023-09-08T17:08:05;7.22;;;5.40;;
9940;SDS011;5009;50.656;7.188;2023-09-08T17:10:30;6.15;;;5.63;;
9940;SDS011;5009;50.656;7.188;2023-09-08T17:12:56;6.28;;;5.40;;
9940;SDS011;5009;50.656;7.188;2023-09-08T17:15:22;6.18;;;5.53;;
9940;SDS011;5009;50.656;7.188;2023-09-08T17:17:48;6.07;;;5.57;;
9940;SDS011;5009;50.656;7.188;2023-09-08T17:20:14;5.95;;;5.45;;
9940;SDS011;5009;50.656;7.188;2023-09-08T17:22:39;6.20;;;5.70;;
9940;SDS011;5009;50.656;7.188;2023-09-08T17:25:05;7.50;;;6.43;;
9940;SDS011;5009;50.656;7.188;2023-09-08T17:27:31;7.93;;;7.20;;
9940;SDS011;5009;50.656;7.188;2023-09-08T17:29:56;7.10;;;6.50;;
9940;SDS011;5009;50.656;7.188;2023-09-08T17:32:22;9.63;;;8.82;;
9940;SDS011;5009;50.656;7.188;2023-09-08T17:34:47;9.48;;;8.63;;
9940;SDS011;5009;50.656;7.188;2023-09-08T17:37:13;10.30;;;9.40;;
9940;SDS011;5009;50.656;7.188;2023-09-08T17:39:39;12.02;;;11.00;;
9940;SDS011;5009;50.656;7.188;2023-09-08T17:42:04;12.55;;;11.45;;
9940;SDS011;5009;50.656;7.188;2023-09-08T17:44:31;12.80;;;11.68;;
9940;SDS011;5009;50.656;7.188;2023-09-08T17:46:57;12.23;;;11.23;;
9940;SDS011;5009;50.656;7.188;2023-09-08T17:49:24;12.90;;;11.80;;
9940;SDS011;5009;50.656;7.188;2023-09-08T17:51:50;14.02;;;12.82;;
9940;SDS011;5009;50.656;7.188;2023-09-08T17:54:15;9.70;;;8.80;;
9940;SDS011;5009;50.656;7.188;2023-09-08T17:56:41;10.50;;;9.70;;
9940;SDS011;5009;50.656;7.188;2023-09-08T17:59:07;8.85;;;8.07;;
9940;SDS011;5009;50.656;7.188;2023-09-08T18:01:32;7.90;;;7.07;;
9940;SDS011;5009;50.656;7.188;2023-09-08T18:04:01;6.63;;;6.13;;
9940;SDS011;5009;50.656;7.188;2023-09-08T18:06:27;8.18;;;7.57;;
9940;SDS011;5009;50.656;7.188;2023-09-08T18:08:52;9.93;;;9.13;;
9940;SDS011;5009;50.656;7.188;2023-09-08T18:11:18;9.20;;;8.30;;
9940;SDS011;5009;50.656;7.188;2023-09-08T18:13:45;12.38;;;11.30;;
9940;SDS011;5009;50.656;7.188;2023-09-08T18:16:11;11.82;;;10.73;;
9940;SDS011;5009;50.656;7.188;2023-09-08T18:18:37;9.70;;;8.90;;
9940;SDS011;5009;50.656;7.188;2023-09-08T18:21:03;8.93;;;8.23;;